createdAt,value
2023-03-17T00:00:59.342Z,3.77
2023-03-17T00:06:01.968Z,5.30
2023-03-17T00:11:03.949Z,4.37
2023-03-17T00:16:20.095Z,3.10
2023-03-17T00:21:30.611Z,11.13
2023-03-17T00:26:33.386Z,4.73
2023-03-17T00:31:35.802Z,5.53
2023-03-17T00:36:37.664Z,3.70
2023-03-17T00:41:39.557Z,4.77
2023-03-17T00:46:42.219Z,3.73
2023-03-17T00:51:45.885Z,6.40
2023-03-17T00:56:52.003Z,5.73
2023-03-17T01:01:54.671Z,4.33
2023-03-17T01:06:58.573Z,5.57
2023-03-17T01:12:03.675Z,1.93
2023-03-17T01:17:15.230Z,3.47
2023-03-17T01:22:17.103Z,3.67
2023-03-17T01:27:19.405Z,3.20
2023-03-17T01:32:22.226Z,3.17
2023-03-17T01:37:24.126Z,2.70
2023-03-17T01:42:25.994Z,6.07
2023-03-17T01:47:32.618Z,3.70
2023-03-17T01:52:36.778Z,3.50
2023-03-17T01:57:42.541Z,5.10
2023-03-17T02:02:47.856Z,6.03
2023-03-17T02:07:49.989Z,4.77
2023-03-17T02:12:58.520Z,5.23
2023-03-17T02:18:00.404Z,5.43
2023-03-17T02:23:04.165Z,3.60
2023-03-17T02:28:16.231Z,4.40
2023-03-17T02:33:19.077Z,3.97
2023-03-17T02:38:21.817Z,4.70
2023-03-17T02:43:23.885Z,4.17
2023-03-17T02:48:26.313Z,6.93
2023-03-17T02:53:28.214Z,4.40
2023-03-17T02:58:30.056Z,6.00
2023-03-17T03:03:32.017Z,6.43
2023-03-17T03:08:33.894Z,3.80
2023-03-17T03:13:36.636Z,5.10
2023-03-17T03:18:38.482Z,4.00
2023-03-17T03:23:40.432Z,4.43
2023-03-17T03:28:42.257Z,3.50
2023-03-17T03:33:44.909Z,3.60
2023-03-17T03:38:46.736Z,4.50
2023-03-17T03:43:48.629Z,4.73
2023-03-17T03:48:50.620Z,7.30
2023-03-17T03:53:52.414Z,5.53
2023-03-17T03:58:54.170Z,13.03
2023-03-17T04:03:56.106Z,6.60
2023-03-17T04:08:58.516Z,9.13
2023-03-17T04:14:00.394Z,5.80
2023-03-17T04:19:02.366Z,6.53
2023-03-17T04:24:05.217Z,5.10
2023-03-17T04:29:09.516Z,4.80
2023-03-17T04:34:16.300Z,7.20
2023-03-17T04:39:18.364Z,6.40
2023-03-17T04:44:20.349Z,5.37
2023-03-17T04:49:22.181Z,19.70
2023-03-17T04:54:24.040Z,6.20
2023-03-17T04:59:26.058Z,3.77
2023-03-17T05:04:31.621Z,3.90
2023-03-17T05:09:34.158Z,5.10
2023-03-17T05:14:37.229Z,6.57
2023-03-17T05:19:39.247Z,4.63
2023-03-17T05:24:41.038Z,5.03
2023-03-17T05:29:42.980Z,4.77
2023-03-17T05:34:45.199Z,7.87
2023-03-17T05:39:47.119Z,4.90
2023-03-17T05:44:49.041Z,5.20
2023-03-17T05:49:51.085Z,10.13
2023-03-17T05:54:53.521Z,7.50
2023-03-17T05:59:55.633Z,6.77
2023-03-17T06:04:57.831Z,10.73
2023-03-17T06:10:00.516Z,4.87
2023-03-17T06:15:02.737Z,8.73
2023-03-17T06:20:05.621Z,5.67
2023-03-17T06:25:08.469Z,5.47
2023-03-17T06:30:11.558Z,6.43
2023-03-17T06:35:13.629Z,11.23
2023-03-17T06:40:16.231Z,7.27
2023-03-17T06:45:18.273Z,5.93
2023-03-17T06:50:20.345Z,10.20
2023-03-17T06:55:22.465Z,9.57
2023-03-17T07:00:24.424Z,14.47
2023-03-17T07:05:26.882Z,8.80
2023-03-17T07:10:28.865Z,11.40
2023-03-17T07:15:35.019Z,10.57
2023-03-17T07:20:37.232Z,8.10
2023-03-17T07:25:40.453Z,12.63
2023-03-17T07:30:46.669Z,6.60
2023-03-17T07:35:49.716Z,11.50
2023-03-17T07:40:53.114Z,8.10
2023-03-17T07:45:55.082Z,7.63
2023-03-17T07:50:57.005Z,10.80
2023-03-17T07:55:58.864Z,11.73
2023-03-17T08:01:03.350Z,10.30
2023-03-17T08:06:06.197Z,7.63
2023-03-17T08:11:08.207Z,11.03
2023-03-17T08:16:10.985Z,6.97
2023-03-17T08:21:14.809Z,11.30
2023-03-17T08:26:18.682Z,8.33
2023-03-17T08:31:21.663Z,15.97
2023-03-17T08:36:24.068Z,9.47
2023-03-17T08:41:28.234Z,7.17
2023-03-17T08:46:31.858Z,12.10
2023-03-17T08:51:36.895Z,11.73
2023-03-17T08:56:40.512Z,8.00
2023-03-17T09:01:44.234Z,7.50
2023-03-17T09:07:01.874Z,8.00
2023-03-17T09:12:06.481Z,7.47
2023-03-17T09:17:08.547Z,20.23
2023-03-17T09:22:15.211Z,15.97
2023-03-17T09:27:17.155Z,10.70
2023-03-17T09:32:19.587Z,6.77
2023-03-17T09:37:21.890Z,5.27
2023-03-17T09:42:44.539Z,10.30
2023-03-17T09:48:04.802Z,7.33
2023-03-17T09:53:35.955Z,6.87
2023-03-17T09:58:41.686Z,4.43
2023-03-17T10:03:43.628Z,6.53
2023-03-17T10:08:55.467Z,10.10
2023-03-17T10:14:05.261Z,11.43
2023-03-17T10:19:27.464Z,8.47
2023-03-17T10:24:32.495Z,5.30
2023-03-17T10:29:34.332Z,7.40
2023-03-17T10:34:38.126Z,4.80
2023-03-17T10:39:52.671Z,8.10
2023-03-17T10:45:07.216Z,10.63
2023-03-17T10:50:15.540Z,12.23
2023-03-17T10:55:21.343Z,8.47
2023-03-17T11:00:24.638Z,17.00
2023-03-17T11:05:29.203Z,11.40
2023-03-17T11:10:37.870Z,8.50
2023-03-17T11:16:01.908Z,7.00
2023-03-17T11:21:22.899Z,7.33
2023-03-17T11:26:34.852Z,8.23
2023-03-17T11:31:55.914Z,10.17
2023-03-17T11:37:14.701Z,9.53
2023-03-17T11:42:19.679Z,8.93
2023-03-17T11:47:31.918Z,10.97
2023-03-17T11:52:36.785Z,11.00
2023-03-17T11:58:01.457Z,8.50
2023-03-17T12:03:12.501Z,8.80
2023-03-17T12:08:35.394Z,11.03
2023-03-17T12:13:45.958Z,11.30
2023-03-17T12:19:05.064Z,8.00
2023-03-17T12:24:31.517Z,8.70
2023-03-17T12:29:55.895Z,8.40
2023-03-17T12:35:02.863Z,10.00
2023-03-17T12:40:14.464Z,7.53
2023-03-17T12:45:49.833Z,8.23
2023-03-17T12:51:16.886Z,8.70
2023-03-17T12:56:31.484Z,8.83
2023-03-17T13:01:39.845Z,17.40
2023-03-17T13:06:53.115Z,10.80
2023-03-17T13:11:55.111Z,11.50
2023-03-17T13:17:19.870Z,8.07
2023-03-17T13:22:21.609Z,8.67
2023-03-17T13:27:32.450Z,13.57
2023-03-17T13:32:36.644Z,16.17
2023-03-17T13:38:05.344Z,12.23
2023-03-17T13:43:07.335Z,9.20
2023-03-17T13:48:21.300Z,11.93
2023-03-17T13:53:27.630Z,9.17
2023-03-17T13:58:34.204Z,10.57
2023-03-17T14:03:42.452Z,14.03
2023-03-17T14:08:47.725Z,10.73
2023-03-17T14:14:32.873Z,10.77
2023-03-17T14:19:38.986Z,8.50
2023-03-17T14:24:40.920Z,14.07
2023-03-17T14:29:43.364Z,10.40
2023-03-17T14:34:53.003Z,9.80
2023-03-17T14:39:57.464Z,10.17
2023-03-17T14:45:06.633Z,10.50
2023-03-17T14:50:31.554Z,9.60
2023-03-17T14:55:43.430Z,14.77
2023-03-17T15:00:47.197Z,11.40
2023-03-17T15:05:50.068Z,10.93
2023-03-17T15:10:52.399Z,8.50
2023-03-17T15:15:55.403Z,9.13
2023-03-17T15:20:58.329Z,8.30
2023-03-17T15:26:03.311Z,9.37
2023-03-17T15:31:13.453Z,9.47
2023-03-17T15:36:31.203Z,10.43
2023-03-17T15:41:34.290Z,8.70
2023-03-17T15:46:36.795Z,8.83
2023-03-17T15:51:38.975Z,11.67
2023-03-17T15:56:43.226Z,9.13
2023-03-17T16:01:45.194Z,11.60
2023-03-17T16:06:49.125Z,11.77
2023-03-17T16:11:52.236Z,10.87
2023-03-17T16:16:54.056Z,13.60
2023-03-17T16:21:56.432Z,12.73
2023-03-17T16:26:58.265Z,14.00
2023-03-17T16:32:00.177Z,11.30
2023-03-17T16:37:03.156Z,17.30
2023-03-17T16:42:05.408Z,13.83
2023-03-17T16:47:09.142Z,18.50
2023-03-17T16:52:12.133Z,13.23
2023-03-17T16:57:14.113Z,12.20
2023-03-17T17:02:16.344Z,22.23
2023-03-17T17:07:18.131Z,22.70
2023-03-17T17:12:19.951Z,16.80
2023-03-17T17:17:21.791Z,10.20
2023-03-17T17:22:23.622Z,15.70
2023-03-17T17:27:25.942Z,15.73
2023-03-17T17:32:27.828Z,15.10
2023-03-17T17:37:29.769Z,18.37
2023-03-17T17:42:31.994Z,17.80
2023-03-17T17:47:33.940Z,19.57
2023-03-17T17:52:35.877Z,18.37
2023-03-17T17:57:37.723Z,18.47
2023-03-17T18:02:39.690Z,24.03
2023-03-17T18:07:41.741Z,30.60
2023-03-17T18:12:43.627Z,37.33
2023-03-17T18:17:45.845Z,14.40
2023-03-17T18:22:48.234Z,9.77
2023-03-17T18:27:50.229Z,30.47
2023-03-17T18:32:59.472Z,19.53
2023-03-17T18:38:01.949Z,13.80
2023-03-17T18:43:04.274Z,10.30
2023-03-17T18:48:06.830Z,15.07
2023-03-17T18:53:08.778Z,15.87
2023-03-17T18:58:13.722Z,14.37
2023-03-17T19:03:15.622Z,16.17
2023-03-17T19:08:19.637Z,16.40
2023-03-17T19:13:21.509Z,15.57
2023-03-17T19:18:23.425Z,14.77
2023-03-17T19:23:25.478Z,11.07
2023-03-17T19:28:27.578Z,10.00
2023-03-17T19:33:29.518Z,12.93
2023-03-17T19:38:31.984Z,14.07
2023-03-17T19:43:40.803Z,10.40
2023-03-17T19:48:43.543Z,5.97
2023-03-17T19:53:45.775Z,10.40
2023-03-17T19:58:47.762Z,9.10
2023-03-17T20:03:49.690Z,9.50
2023-03-17T20:08:51.772Z,12.70
2023-03-17T20:13:53.626Z,13.03
2023-03-17T20:18:56.026Z,11.70
2023-03-17T20:23:57.925Z,20.60
2023-03-17T20:29:00.812Z,9.47
2023-03-17T20:34:02.761Z,14.40
2023-03-17T20:39:05.793Z,17.13
2023-03-17T20:44:08.051Z,7.23
2023-03-17T20:49:10.604Z,9.83
2023-03-17T20:54:12.917Z,11.70
2023-03-17T20:59:15.389Z,8.10
2023-03-17T21:04:17.880Z,9.33
2023-03-17T21:09:19.794Z,8.80
2023-03-17T21:14:21.790Z,12.23
2023-03-17T21:19:24.005Z,11.37
2023-03-17T21:24:28.717Z,13.03
2023-03-17T21:29:32.235Z,8.00
2023-03-17T21:34:34.564Z,11.00
2023-03-17T21:39:36.643Z,7.83
2023-03-17T21:44:39.564Z,10.03
2023-03-17T21:49:41.752Z,9.30
2023-03-17T21:54:43.724Z,7.50
2023-03-17T21:59:45.693Z,9.13
2023-03-17T22:04:49.567Z,9.57
2023-03-17T22:09:53.087Z,8.13
2023-03-17T22:14:58.104Z,11.47
2023-03-17T22:20:00.025Z,17.27
2023-03-17T22:25:05.065Z,19.13
2023-03-17T22:30:07.657Z,18.83
2023-03-17T22:35:09.592Z,11.67
2023-03-17T22:40:12.167Z,13.20
2023-03-17T22:45:14.619Z,8.60
2023-03-17T22:50:17.029Z,10.10
2023-03-17T22:55:19.074Z,11.80
2023-03-17T23:00:21.498Z,7.23
2023-03-17T23:05:23.563Z,13.40
2023-03-17T23:10:25.496Z,8.97
2023-03-17T23:15:28.018Z,12.57
2023-03-17T23:20:30.524Z,7.37
2023-03-17T23:25:33.215Z,7.70
2023-03-17T23:30:35.895Z,8.43
2023-03-17T23:35:38.156Z,10.00
2023-03-17T23:40:40.122Z,13.60
2023-03-17T23:45:42.317Z,7.27
2023-03-17T23:50:44.216Z,9.63
2023-03-17T23:55:46.786Z,9.40
